Time;durP1;ratioP1;P1;durP2;ratioP2;P2;SDS_P1;SDS_P2;PMS_P1;PMS_P2;Temp;Humidity;BMP_temperature;BMP_pressure;BME280_temperature;BME280_humidity;BME280_pressure;Samples;Min_cycle;Max_cycle;Signal;HPM_P1;HPM_P2
2021/11/09 00:01:15;;;;;;;29.92;12.18;;;;;;;4.97;97.75;100278.09;5021555;28;20038;-61
2021/11/09 00:03:48;;;;;;;35.65;13.18;;;;;;;5.02;97.73;100287.34;5021692;28;20403;-61
2021/11/09 00:06:36;;;;;;;39.22;12.40;;;;;;;5.11;97.29;100278.31;5008220;28;20046;-61
2021/11/09 00:09:10;;;;;;;31.38;12.88;;;;;;;5.10;96.95;100277.47;5019706;28;20132;-61
2021/11/09 00:11:35;;;;;;;36.00;12.57;;;;;;;5.21;97.51;100278.88;5020620;28;20042;-61
2021/11/09 00:14:01;;;;;;;26.90;11.30;;;;;;;5.26;97.07;100281.78;5021697;28;20076;-61
2021/11/09 00:16:27;;;;;;;33.95;11.85;;;;;;;5.24;96.38;100278.53;5034083;28;20045;-62
2021/11/09 00:18:52;;;;;;;32.17;11.18;;;;;;;5.15;96.44;100282.25;5040536;28;20763;-61
2021/11/09 00:21:18;;;;;;;28.05;10.38;;;;;;;5.07;96.94;100282.34;5040676;28;20113;-61
2021/11/09 00:23:44;;;;;;;25.45;10.05;;;;;;;5.03;97.82;100281.03;5042277;28;20032;-61
2021/11/09 00:26:09;;;;;;;25.65;10.25;;;;;;;5.12;97.76;100279.97;5040431;28;20346;-61
2021/11/09 00:28:35;;;;;;;27.30;10.68;;;;;;;5.05;97.21;100279.84;5041187;28;20375;-62
2021/11/09 00:31:00;;;;;;;25.58;9.52;;;;;;;5.06;96.90;100283.34;5033614;28;20046;-60
2021/11/09 00:33:26;;;;;;;29.15;9.63;;;;;;;4.96;96.79;100276.44;5019083;28;20028;-60
2021/11/09 00:35:52;;;;;;;19.23;9.15;;;;;;;4.91;96.99;100281.47;5026455;28;20072;-62
2021/11/09 00:38:17;;;;;;;22.70;9.63;;;;;;;4.84;97.19;100279.72;5040950;28;20032;-61
2021/11/09 00:40:43;;;;;;;22.30;9.13;;;;;;;4.82;97.51;100289.69;5040842;28;20044;-60
2021/11/09 00:43:10;;;;;;;24.10;9.10;;;;;;;4.84;98.11;100288.53;5041391;28;20027;-61
2021/11/09 00:45:35;;;;;;;21.10;8.98;;;;;;;4.91;99.44;100294.75;5036126;28;20793;-61
2021/11/09 00:48:01;;;;;;;24.88;9.95;;;;;;;4.82;97.87;100295.84;5021254;28;20037;-61
2021/11/09 00:50:27;;;;;;;34.75;10.82;;;;;;;4.75;97.82;100300.22;5024448;28;20049;-60
2021/11/09 00:52:52;;;;;;;30.90;10.35;;;;;;;4.71;97.97;100294.41;5042002;28;20107;-59
2021/11/09 00:55:18;;;;;;;25.75;10.68;;;;;;;4.70;98.13;100302.56;5040153;28;21513;-61
2021/11/09 00:57:44;;;;;;;27.90;10.02;;;;;;;4.65;98.34;100299.63;5038959;28;20060;-60
2021/11/09 01:00:13;;;;;;;22.35;8.40;;;;;;;4.54;98.67;100303.50;5041963;28;20029;-59
2021/11/09 01:02:40;;;;;;;28.37;9.50;;;;;;;4.51;99.73;100295.91;5035758;28;20057;-61
2021/11/09 01:05:06;;;;;;;27.90;9.57;;;;;;;4.49;99.86;100300.56;5039003;28;20859;-60
2021/11/09 01:07:31;;;;;;;31.27;10.23;;;;;;;4.51;100.00;100299.38;5041411;28;20052;-61
2021/11/09 01:09:56;;;;;;;27.83;9.77;;;;;;;4.56;100.00;100295.38;5044770;28;20540;-61
2021/11/09 01:12:22;;;;;;;30.45;10.43;;;;;;;4.58;100.00;100299.50;5043222;28;20060;-62
2021/11/09 01:14:47;;;;;;;20.58;8.95;;;;;;;4.44;100.00;100290.50;5043521;28;20029;-59
2021/11/09 01:17:13;;;;;;;26.83;9.05;;;;;;;4.32;100.00;100294.56;5044142;28;20045;-62
2021/11/09 01:19:38;;;;;;;24.75;10.20;;;;;;;4.15;100.00;100287.69;5044741;28;20040;-59
2021/11/09 01:22:04;;;;;;;28.40;9.85;;;;;;;4.19;99.95;100281.81;5044538;28;20052;-61
2021/11/09 01:24:30;;;;;;;27.67;9.45;;;;;;;4.29;99.76;100289.56;5043765;28;20037;-61
2021/11/09 01:26:55;;;;;;;30.60;8.95;;;;;;;4.27;99.00;100283.63;5043637;28;20384;-60
2021/11/09 01:29:20;;;;;;;30.88;10.50;;;;;;;4.23;99.12;100284.97;5044341;28;20110;-60
2021/11/09 01:31:46;;;;;;;22.00;8.25;;;;;;;4.24;98.83;100283.97;5043032;28;20422;-61
2021/11/09 01:34:12;;;;;;;28.50;9.27;;;;;;;4.23;99.13;100284.97;5045168;28;20029;-61
2021/11/09 01:36:37;;;;;;;31.15;10.25;;;;;;;4.22;98.95;100285.97;5042512;28;20048;-61
2021/11/09 01:39:04;;;;;;;19.17;7.88;;;;;;;4.14;98.77;100281.53;5042576;28;20028;-61
2021/11/09 01:41:29;;;;;;;22.63;9.65;;;;;;;4.15;99.56;100287.69;5044434;28;20040;-60
2021/11/09 01:43:55;;;;;;;19.13;8.75;;;;;;;4.13;98.97;100290.50;5044443;28;20029;-61
2021/11/09 01:46:21;;;;;;;19.60;8.63;;;;;;;4.17;98.94;100281.19;5044699;28;20056;-61
2021/11/09 01:48:47;;;;;;;25.65;8.73;;;;;;;4.17;98.44;100286.50;5044106;28;20109;-61
2021/11/09 01:51:16;;;;;;;22.92;9.20;;;;;;;4.14;98.16;100286.03;5043919;28;20073;-61
2021/11/09 01:53:43;;;;;;;30.15;9.68;;;;;;;4.10;98.26;100294.34;5043487;28;20032;-61
2021/11/09 01:56:11;;;;;;;16.60;8.68;;;;;;;4.05;98.32;100299.34;5044158;28;20045;-61
2021/11/09 01:58:36;;;;;;;19.60;8.88;;;;;;;4.04;98.73;100297.69;5038892;28;20033;-60
2021/11/09 02:01:05;;;;;;;25.55;8.63;;;;;;;4.08;99.08;100293.66;5044194;28;20029;-61
2021/11/09 02:03:30;;;;;;;24.58;8.75;;;;;;;4.05;99.26;100283.41;5043984;28;20518;-61
2021/11/09 02:05:56;;;;;;;25.77;9.27;;;;;;;4.02;98.95;100283.78;5044229;28;20083;-60
2021/11/09 02:08:24;;;;;;;19.95;8.73;;;;;;;4.00;98.69;100285.78;5044311;28;20124;-60
2021/11/09 02:10:49;;;;;;;21.58;8.38;;;;;;;3.93;98.92;100287.47;5043430;28;20049;-60
2021/11/09 02:13:15;;;;;;;23.45;8.05;;;;;;;3.91;99.81;100286.78;5044761;28;20056;-60
2021/11/09 02:15:40;;;;;;;19.80;8.43;;;;;;;3.91;99.79;100286.78;5038613;28;20569;-60
2021/11/09 02:18:08;;;;;;;26.27;9.32;;;;;;;3.97;100.00;100283.47;5041544;28;20029;-60
2021/11/09 02:20:33;;;;;;;28.20;9.48;;;;;;;3.93;99.74;100290.09;5041633;28;20423;-60
2021/11/09 02:22:59;;;;;;;28.90;9.82;;;;;;;3.88;99.70;100281.84;5043916;28;20029;-60
2021/11/09 02:25:25;;;;;;;28.60;15.45;;;;;;;3.87;99.76;100274.91;5043219;28;20057;-60
2021/11/09 02:27:51;;;;;;;31.60;11.30;;;;;;;3.88;99.56;100282.66;5043289;28;20025;-60
2021/11/09 02:30:19;;;;;;;28.40;10.75;;;;;;;3.99;100.00;100286.75;5042821;28;20086;-60
2021/11/09 02:32:45;;;;;;;31.42;11.95;;;;;;;3.89;99.95;100292.28;5045065;28;20301;-60
2021/11/09 02:35:10;;;;;;;33.10;11.85;;;;;;;3.85;99.27;100287.50;5041314;28;20751;-60
2021/11/09 02:37:36;;;;;;;30.92;11.05;;;;;;;3.89;99.93;100291.44;5044156;28;20471;-60
2021/11/09 02:40:03;;;;;;;34.95;12.07;;;;;;;3.67;99.03;100298.34;5037058;28;20033;-59
2021/11/09 02:42:33;;;;;;;32.05;11.07;;;;;;;3.56;99.88;100304.81;5035529;28;20083;-60
2021/11/09 02:45:05;;;;;;;29.02;11.43;;;;;;;3.56;100.00;100304.00;5038081;28;20437;-60
2021/11/09 02:47:42;;;;;;;30.73;11.23;;;;;;;3.52;100.00;100308.84;5043127;28;20194;-61
2021/11/09 02:50:11;;;;;;;28.45;11.27;;;;;;;3.62;100.00;100306.81;5040778;28;20037;-61
2021/11/09 02:52:45;;;;;;;29.73;11.32;;;;;;;3.72;100.00;100308.41;5020828;28;20044;-61
2021/11/09 02:55:11;;;;;;;37.20;10.93;;;;;;;3.71;100.00;100317.38;5020998;28;20030;-61
2021/11/09 02:57:45;;;;;;;23.08;10.63;;;;;;;3.56;100.00;100320.72;5021989;28;20734;-61
2021/11/09 03:00:30;;;;;;;26.23;10.43;;;;;;;3.59;100.00;100315.09;5021066;28;20053;-61
2021/11/09 03:03:06;;;;;;;26.52;10.13;;;;;;;3.50;100.00;100315.31;5041851;28;20107;-60
2021/11/09 03:06:00;;;;;;;24.65;10.13;;;;;;;3.44;100.00;100316.78;5037558;28;20045;-61
2021/11/09 03:08:42;;;;;;;25.25;10.55;;;;;;;3.46;100.00;100320.09;5019550;28;20462;-61
2021/11/09 03:11:07;;;;;;;30.27;11.15;;;;;;;3.37;100.00;100318.47;5023723;28;20103;-60
2021/11/09 03:13:34;;;;;;;29.10;11.45;;;;;;;3.56;100.00;100320.72;5018334;28;20646;-61
2021/11/09 03:16:05;;;;;;;25.95;9.30;;;;;;;3.31;100.00;100316.50;5020246;28;20037;-61
2021/11/09 03:18:37;;;;;;;23.10;10.38;;;;;;;3.38;100.00;100317.47;5023375;28;20372;-60
2021/11/09 03:45:30;;;;;;;27.55;10.70;;;;;;;3.24;100.00;100333.09;5039730;28;20094;-60
2021/11/09 03:48:02;;;;;;;30.27;11.10;;;;;;;3.13;100.00;100338.72;5042415;28;20083;-60
2021/11/09 03:50:28;;;;;;;29.45;10.60;;;;;;;3.07;100.00;100344.69;5040011;28;20774;-60
2021/11/09 03:52:58;;;;;;;24.27;10.80;;;;;;;3.14;100.00;100342.19;5036925;28;20094;-60
2021/11/09 03:58:05;;;;;;;27.35;10.68;;;;;;;3.20;100.00;100337.06;5041440;28;20032;-60
2021/11/09 04:00:41;;;;;;;36.92;11.80;;;;;;;3.16;100.00;100338.38;5041001;28;20045;-60
2021/11/09 04:03:40;;;;;;;28.52;11.15;;;;;;;2.99;100.00;100336.72;5041511;28;20403;-60
2021/11/09 04:05:57;;;;;;;28.02;12.02;;;;;;;2.79;100.00;100338.88;5040584;28;20051;-61
2021/11/09 04:08:44;;;;;;;30.00;10.68;;;;;;;2.85;100.00;100342.69;5042336;28;20021;-60
2021/11/09 04:11:32;;;;;;;26.33;11.15;;;;;;;2.70;100.00;100346.00;5039086;28;20069;-60
2021/11/09 04:47:41;;;;;;;26.17;9.43;;;;;;;2.63;100.00;100345.00;5040687;28;20073;-60
2021/11/09 04:49:46;;;;;;;26.80;9.20;;;;;;;2.48;100.00;100341.31;5030264;28;20053;-60
2021/11/09 05:10:31;;;;;;;18.77;8.55;;;;;;;1.48;100.00;100368.34;5044993;28;20101;-61
2021/11/09 05:12:57;;;;;;;21.30;8.25;;;;;;;1.48;100.00;100371.00;5046372;28;20391;-61
2021/11/09 05:15:23;;;;;;;27.10;9.20;;;;;;;1.62;100.00;100374.03;5045628;28;20152;-62
2021/11/09 05:17:48;;;;;;;25.58;9.55;;;;;;;1.49;100.00;100372.63;5045307;28;20477;-59
2021/11/09 05:20:13;;;;;;;27.48;9.80;;;;;;;1.55;100.00;100375.63;5044163;28;20021;-59
2021/11/09 05:22:39;;;;;;;25.15;9.95;;;;;;;1.44;100.00;100385.47;5045308;28;20048;-62
2021/11/09 05:25:05;;;;;;;21.48;9.32;;;;;;;1.43;100.00;100383.84;5045650;28;20120;-61
2021/11/09 05:27:30;;;;;;;22.45;9.77;;;;;;;1.38;100.00;100385.28;5045521;28;20027;-61
2021/11/09 05:29:56;;;;;;;21.95;8.23;;;;;;;1.28;100.00;100391.50;5045350;28;20078;-61
2021/11/09 05:32:22;;;;;;;23.88;9.35;;;;;;;1.21;100.00;100389.63;5044517;28;20048;-61
2021/11/09 05:34:47;;;;;;;26.33;10.02;;;;;;;1.13;100.00;100389.56;5026896;28;20025;-61
2021/11/09 05:37:16;;;;;;;24.17;9.45;;;;;;;1.19;100.00;100387.13;5043034;28;20057;-61
2021/11/09 05:39:47;;;;;;;45.65;15.55;;;;;;;1.34;100.00;100379.47;5044032;28;20033;-61
2021/11/09 05:42:14;;;;;;;42.13;14.15;;;;;;;1.41;100.00;100379.69;5043370;28;20068;-61
2021/11/09 05:44:39;;;;;;;37.90;12.82;;;;;;;1.39;100.00;100382.47;5033704;28;20059;-61
2021/11/09 05:47:05;;;;;;;36.72;11.82;;;;;;;1.26;100.00;100377.59;5040314;28;20659;-61
2021/11/09 05:49:32;;;;;;;35.45;12.68;;;;;;;1.26;100.00;100379.41;5041802;28;20527;-61
2021/11/09 05:51:57;;;;;;;32.72;11.20;;;;;;;1.24;100.00;100381.38;5043838;28;20033;-61
2021/11/09 05:54:23;;;;;;;31.48;11.65;;;;;;;1.47;100.00;100385.19;5038816;28;20140;-60
2021/11/09 05:56:48;;;;;;;38.55;12.45;;;;;;;1.41;100.00;100391.09;5039886;28;20037;-60
2021/11/09 05:59:13;;;;;;;30.58;11.10;;;;;;;1.20;100.00;100387.94;5043174;28;20049;-60
2021/11/09 06:01:39;;;;;;;38.17;11.38;;;;;;;1.14;100.00;100391.22;5043913;28;20041;-61
2021/11/09 06:04:04;;;;;;;28.67;11.93;;;;;;;1.22;100.00;100385.97;5044753;28;20303;-60
2021/11/09 06:06:30;;;;;;;27.38;11.05;;;;;;;1.07;100.00;100378.63;5042733;28;20060;-61
2021/11/09 06:08:55;;;;;;;31.50;10.70;;;;;;;1.13;100.00;100384.28;5043772;28;20060;-61
2021/11/09 06:11:21;;;;;;;45.55;12.85;;;;;;;1.31;100.00;100377.16;5044407;28;20114;-62
2021/11/09 06:13:46;;;;;;;35.33;11.77;;;;;;;1.27;100.00;100379.28;5044897;28;20467;-61
2021/11/09 06:16:12;;;;;;;34.00;11.63;;;;;;;1.27;100.00;100373.16;5043695;28;20129;-60
2021/11/09 06:18:37;;;;;;;29.70;11.68;;;;;;;1.27;100.00;100387.22;5044341;28;20630;-61
2021/11/09 06:21:03;;;;;;;30.40;11.50;;;;;;;1.28;100.00;100391.50;5041395;28;20048;-61
2021/11/09 06:23:28;;;;;;;30.48;11.07;;;;;;;1.20;100.00;100391.44;5041516;28;20475;-61
2021/11/09 06:25:54;;;;;;;39.00;10.93;;;;;;;1.19;100.00;100394.22;5040868;28;20049;-61
2021/11/09 06:28:20;;;;;;;31.05;13.52;;;;;;;1.24;100.00;100395.41;5043154;28;20035;-61
2021/11/09 06:30:46;;;;;;;27.55;13.10;;;;;;;1.43;100.00;100404.97;5040573;28;20045;-61
2021/11/09 06:33:12;;;;;;;28.27;11.48;;;;;;;1.18;100.00;100409.25;5042944;28;20528;-61
2021/11/09 06:35:38;;;;;;;36.97;11.23;;;;;;;1.28;100.00;100411.78;5041680;28;20141;-61
2021/11/09 06:38:03;;;;;;;29.55;11.50;;;;;;;1.49;100.00;100403.53;5039724;28;20532;-61
2021/11/09 06:40:29;;;;;;;58.58;18.23;;;;;;;1.84;100.00;100402.56;5034507;28;20053;-60
2021/11/09 06:42:54;;;;;;;39.17;14.05;;;;;;;1.86;100.00;100411.19;5041991;28;20078;-60
2021/11/09 06:45:20;;;;;;;41.20;14.35;;;;;;;2.01;100.00;100414.06;5041127;28;20048;-61
2021/11/09 06:47:47;;;;;;;38.42;13.63;;;;;;;1.97;100.00;100419.81;5037328;28;20045;-59
2021/11/09 06:50:13;;;;;;;37.80;16.27;;;;;;;1.83;100.00;100427.38;5038114;28;20147;-60
2021/11/09 06:52:38;;;;;;;43.30;14.45;;;;;;;1.86;100.00;100428.88;5033969;28;20111;-60
2021/11/09 06:55:04;;;;;;;34.60;13.25;;;;;;;1.73;100.00;100430.13;5039542;28;20457;-59
2021/11/09 06:57:30;;;;;;;26.08;11.00;;;;;;;1.69;100.00;100435.84;5043311;28;20044;-61
2021/11/09 06:59:55;;;;;;;29.95;11.73;;;;;;;1.57;100.00;100439.75;5042384;28;20028;-61
2021/11/09 07:02:21;;;;;;;27.20;11.10;;;;;;;1.71;100.00;100444.47;5057975;28;20507;-61
2021/11/09 07:04:46;;;;;;;28.95;11.77;;;;;;;1.57;100.00;100442.38;5043123;28;20060;-61
2021/11/09 07:07:12;;;;;;;25.35;11.63;;;;;;;1.76;100.00;100447.47;5042791;28;20041;-62
2021/11/09 07:09:37;;;;;;;35.67;11.23;;;;;;;1.97;100.00;100448.91;5023463;28;20029;-61
2021/11/09 07:12:03;;;;;;;25.38;11.05;;;;;;;2.17;100.00;100455.63;5031488;28;20751;-61
2021/11/09 07:14:29;;;;;;;27.45;10.80;;;;;;;2.42;100.00;100453.94;5043700;28;20034;-61
2021/11/09 07:16:55;;;;;;;31.77;11.35;;;;;;;2.43;100.00;100466.19;5042861;28;20052;-61
2021/11/09 07:19:21;;;;;;;21.83;10.32;;;;;;;2.52;100.00;100465.22;5038969;28;20025;-61
2021/11/09 07:21:46;;;;;;;18.77;9.07;;;;;;;2.58;100.00;100474.34;5051462;28;20068;-59
2021/11/09 07:24:12;;;;;;;19.10;9.40;;;;;;;2.59;100.00;100481.28;5042612;28;20186;-59
2021/11/09 07:26:38;;;;;;;28.25;11.45;;;;;;;2.01;96.52;100485.47;5042157;28;20079;-59
2021/11/09 07:29:03;;;;;;;23.13;10.50;;;;;;;1.73;96.51;100485.63;5043093;28;20487;-60
2021/11/09 07:31:30;;;;;;;25.45;10.98;;;;;;;2.10;96.17;100483.72;5043795;28;20056;-60
2021/11/09 07:33:55;;;;;;;33.90;17.45;;;;;;;3.17;95.56;100490.19;5042290;28;20052;-60
2021/11/09 07:36:21;;;;;;;36.50;20.23;;;;;;;3.21;89.84;100492.38;5040837;28;20171;-60
2021/11/09 07:38:46;;;;;;;49.53;26.23;;;;;;;3.15;91.17;100492.22;5037497;28;20035;-60
2021/11/09 07:41:12;;;;;;;45.80;21.58;;;;;;;2.61;93.28;100487.25;5040968;28;20044;-60
2021/11/09 07:43:37;;;;;;;64.28;27.63;;;;;;;3.79;94.36;100490.53;5040691;28;20032;-60
2021/11/09 07:46:05;;;;;;;63.28;28.75;;;;;;;4.41;85.98;100489.09;5036158;28;20959;-60
2021/11/09 07:48:30;;;;;;;38.67;19.85;;;;;;;4.90;83.59;100487.03;5038569;28;20036;-60
2021/11/09 07:50:56;;;;;;;30.25;16.33;;;;;;;5.11;81.86;100491.72;5041322;28;20507;-60
2021/11/09 07:53:23;;;;;;;33.85;17.60;;;;;;;4.94;81.05;100491.03;5041427;28;20071;-60
2021/11/09 07:56:04;;;;;;;59.97;28.42;;;;;;;3.94;85.93;100493.34;5040174;28;20044;-60
2021/11/09 07:58:35;;;;;;;52.38;28.90;;;;;;;3.59;88.13;100500.66;5041089;28;20037;-60
2021/11/09 08:01:07;;;;;;;34.58;20.10;;;;;;;3.40;88.86;100498.38;5033196;28;20045;-60
2021/11/09 08:06:47;;;;;;;42.05;24.30;;;;;;;3.09;92.24;100491.00;5037689;28;20787;-60
2021/11/09 08:09:35;;;;;;;50.10;29.27;;;;;;;3.54;90.70;100494.22;5037461;28;20040;-60
2021/11/09 08:11:54;;;;;;;43.08;23.90;;;;;;;3.52;90.64;100491.75;5030737;28;20040;-60
2021/11/09 08:14:20;;;;;;;44.33;22.52;;;;;;;3.50;90.04;100491.06;5043158;28;20468;-60
2021/11/09 08:16:47;;;;;;;58.30;26.17;;;;;;;3.60;90.93;100491.72;5040513;28;20094;-60
2021/11/09 08:19:12;;;;;;;55.22;23.75;;;;;;;3.97;89.71;100492.19;5040542;28;20498;-60
2021/11/09 08:21:39;;;;;;;56.30;21.80;;;;;;;3.93;90.48;100498.84;5036670;28;20041;-60
2021/11/09 08:24:04;;;;;;;42.92;19.42;;;;;;;3.88;91.27;100497.50;5041207;28;20029;-60
2021/11/09 08:26:30;;;;;;;58.75;16.35;;;;;;;4.04;92.99;100499.31;5039317;28;20064;-61
2021/11/09 08:28:56;;;;;;;57.17;14.82;;;;;;;3.77;92.74;100497.00;5040160;28;20075;-61
2021/11/09 08:31:24;;;;;;;82.80;14.23;;;;;;;3.58;95.42;100503.50;5040926;28;20045;-60
2021/11/09 08:33:50;;;;;;;61.97;14.27;;;;;;;3.62;96.28;100500.34;5038206;28;20052;-60
2021/11/09 08:36:21;;;;;;;63.78;14.85;;;;;;;3.42;96.26;100496.34;5034415;28;20038;-60
2021/11/09 08:38:47;;;;;;;63.65;16.83;;;;;;;3.58;96.26;100499.03;5031064;28;20562;-60
2021/11/09 08:41:12;;;;;;;56.97;18.02;;;;;;;3.44;96.34;100502.31;5040385;28;20087;-60
2021/11/09 08:43:40;;;;;;;61.83;15.32;;;;;;;3.32;96.80;100499.19;5041968;28;20068;-60
2021/11/09 08:46:18;;;;;;;63.95;16.52;;;;;;;3.44;97.31;100502.31;5041619;28;20073;-60
2021/11/09 08:48:47;;;;;;;48.05;16.98;;;;;;;3.74;96.86;100502.66;5040701;28;20040;-60
2021/11/09 08:51:13;;;;;;;41.60;17.25;;;;;;;3.97;96.33;100511.59;5040879;28;20049;-60
2021/11/09 08:53:43;;;;;;;41.70;15.23;;;;;;;4.03;95.37;100508.25;5037034;28;20037;-60
2021/11/09 09:06:37;;;;;;;33.30;12.70;;;;;;;4.48;92.04;100512.13;5041231;28;20063;-60
2021/11/09 09:09:02;;;;;;;48.15;14.23;;;;;;;4.49;92.00;100512.94;5041916;28;20551;-60
2021/11/09 09:11:29;;;;;;;30.73;13.75;;;;;;;4.52;92.54;100512.63;5040299;28;20053;-60
2021/11/09 09:13:55;;;;;;;34.55;13.02;;;;;;;4.59;92.14;100507.44;5037045;28;20032;-60
2021/11/09 09:16:20;;;;;;;36.40;13.98;;;;;;;4.65;91.35;100512.91;5040481;28;20179;-60
2021/11/09 09:18:45;;;;;;;34.47;12.68;;;;;;;4.88;91.49;100522.75;5039895;28;20036;-60
2021/11/09 09:21:19;;;;;;;26.33;12.68;;;;;;;5.44;88.53;100509.28;5040653;28;20546;-60
2021/11/09 09:23:56;;;;;;;23.02;11.15;;;;;;;5.58;87.05;100521.81;5041893;28;20033;-60
2021/11/09 09:53:03;;;;;;;24.63;11.45;;;;;;;4.63;93.25;100533.47;5041007;28;20087;-60
2021/11/09 09:55:39;;;;;;;19.17;9.25;;;;;;;5.06;90.79;100533.94;5043701;28;20045;-60
2021/11/09 09:58:05;;;;;;;27.42;17.02;;;;;;;5.15;90.74;100529.44;5044487;28;20116;-60
2021/11/09 10:00:31;;;;;;;28.33;11.10;;;;;;;5.20;89.20;100543.03;5039710;28;20583;-60
2021/11/09 10:02:57;;;;;;;19.67;11.70;;;;;;;4.95;90.45;100534.34;5043967;28;20060;-60
2021/11/09 10:05:24;;;;;;;21.40;11.52;;;;;;;4.36;93.20;100539.22;5035969;28;20048;-60
2021/11/09 10:07:57;;;;;;;25.48;12.00;;;;;;;4.98;94.67;100539.31;5040848;28;20471;-60
2021/11/09 10:10:27;;;;;;;28.23;11.80;;;;;;;5.05;93.56;100531.47;5043100;28;20075;-60
2021/11/09 10:13:13;;;;;;;18.90;11.15;;;;;;;4.99;93.37;100530.31;5039578;28;20045;-62
2021/11/09 10:15:43;;;;;;;26.27;12.68;;;;;;;5.22;92.68;100538.34;5040899;28;20045;-59
2021/11/09 10:18:13;;;;;;;32.90;15.27;;;;;;;5.12;92.30;100535.09;5044604;28;20123;-62
2021/11/09 10:20:45;;;;;;;;;;;;;;;5.30;93.02;100543.63;5042079;28;20234;-62
2021/11/09 10:23:31;;;;;;;26.40;14.10;;;;;;;5.83;91.47;100539.22;5039978;28;19931;-61
2021/11/09 10:26:01;;;;;;;31.92;14.20;;;;;;;5.99;89.96;100532.97;5039675;28;20116;-63
2021/11/09 10:28:27;;;;;;;;;;;;;;;5.48;90.68;100532.69;5041783;28;20407;-61
2021/11/09 10:30:55;;;;;;;22.60;12.93;;;;;;;6.05;90.09;100539.41;5044068;28;19977;-61
2021/11/09 10:33:23;;;;;;;24.95;13.27;;;;;;;5.67;90.66;100542.03;5042011;28;20341;-61
2021/11/09 10:35:48;;;;;;;24.48;12.90;;;;;;;5.98;90.25;100527.84;5031892;28;20037;-61
2021/11/09 10:38:14;;;;;;;25.92;11.65;;;;;;;6.08;88.75;100533.72;5044230;28;20056;-62
2021/11/09 10:40:45;;;;;;;22.00;12.18;;;;;;;6.00;89.79;100531.16;5038573;28;20194;-62
2021/11/09 10:43:11;;;;;;;27.45;13.20;;;;;;;6.46;87.95;100531.84;5043017;28;20112;-61
2021/11/09 10:45:38;;;;;;;22.98;12.40;;;;;;;7.18;87.02;100532.91;5040675;28;20041;-61
2021/11/09 10:48:06;;;;;;;24.42;13.20;;;;;;;7.97;82.41;100532.84;5042489;28;20684;-61
2021/11/09 10:50:36;;;;;;;25.10;13.85;;;;;;;7.80;82.19;100526.13;5043273;28;20056;-62
2021/11/09 10:53:19;;;;;;;21.58;11.30;;;;;;;8.99;81.06;100517.22;5042897;28;20124;-62
2021/11/09 11:04:19;;;;;;;25.27;13.40;;;;;;;8.42;80.67;100509.34;5042863;28;20047;-63
2021/11/09 11:06:46;;;;;;;21.10;12.82;;;;;;;8.52;79.48;100500.16;5039070;28;20407;-60
2021/11/09 11:09:12;;;;;;;20.13;12.43;;;;;;;8.05;80.32;100501.69;5043428;28;20475;-60
2021/11/09 11:11:45;;;;;;;23.23;12.25;;;;;;;7.97;81.76;100495.47;5042175;28;20052;-60
2021/11/09 11:14:26;;;;;;;24.85;11.80;;;;;;;8.37;80.28;100500.25;5043045;28;20033;-61
2021/11/09 11:17:02;;;;;;;22.75;11.85;;;;;;;8.40;80.65;100486.53;5039224;28;20052;-61
2021/11/09 11:19:29;;;;;;;16.98;11.35;;;;;;;8.35;81.61;100492.44;5042654;28;20040;-61
2021/11/09 11:21:57;;;;;;;19.63;11.05;;;;;;;8.59;81.39;100493.00;5042910;28;20090;-61
2021/11/09 11:24:24;;;;;;;18.77;11.60;;;;;;;8.37;81.62;100490.38;5043522;28;20553;-61
2021/11/09 11:26:50;;;;;;;17.65;11.18;;;;;;;8.20;82.24;100486.38;5030979;28;20325;-61
2021/11/09 11:29:17;;;;;;;21.88;11.43;;;;;;;8.33;83.05;100481.09;5042480;28;20021;-61
2021/11/09 11:31:43;;;;;;;18.38;11.05;;;;;;;8.61;80.62;100475.75;5039825;28;20045;-61
2021/11/09 11:34:09;;;;;;;25.65;12.48;;;;;;;8.55;81.85;100475.72;5041870;28;20021;-61
2021/11/09 11:36:34;;;;;;;22.83;12.38;;;;;;;8.34;82.83;100471.28;5041657;28;20045;-61
2021/11/09 11:39:03;;;;;;;25.42;12.40;;;;;;;8.72;81.48;100471.69;5042531;28;20034;-61
2021/11/09 11:41:29;;;;;;;24.35;12.43;;;;;;;8.70;81.14;100465.69;5041935;28;20049;-61
2021/11/09 11:43:56;;;;;;;24.15;12.00;;;;;;;9.07;80.50;100463.56;5042011;28;20094;-61
2021/11/09 11:46:33;;;;;;;26.35;12.60;;;;;;;8.75;81.19;100455.22;5042550;28;20479;-61
2021/11/09 11:49:06;;;;;;;22.15;11.75;;;;;;;8.70;82.57;100447.00;5040548;28;20044;-61
2021/11/09 11:51:33;;;;;;;21.40;11.10;;;;;;;8.62;82.21;100450.66;5035984;28;20045;-61
2021/11/09 11:53:59;;;;;;;21.33;11.80;;;;;;;8.31;83.71;100445.78;5040624;28;20051;-61
2021/11/09 11:56:43;;;;;;;20.08;8.32;;;;;;;8.15;79.86;100448.75;5029487;28;20675;-61
2021/11/09 11:59:27;;;;;;;19.42;7.32;;;;;;;8.58;77.52;100445.91;5040715;28;20020;-62
2021/11/09 12:01:54;;;;;;;24.90;12.05;;;;;;;8.73;81.05;100438.56;5041645;28;20044;-61
2021/11/09 12:04:44;;;;;;;22.92;12.50;;;;;;;8.82;82.07;100437.38;5040896;28;20111;-62
2021/11/09 12:07:11;;;;;;;28.13;12.38;;;;;;;8.82;83.01;100440.03;5035570;28;20080;-61
2021/11/09 12:09:39;;;;;;;27.65;12.90;;;;;;;8.90;81.73;100430.19;5040507;28;20028;-63
2021/11/09 12:12:20;;;;;;;24.67;12.25;;;;;;;9.11;80.22;100431.88;5038830;28;20395;-61
2021/11/09 12:14:56;;;;;;;22.67;11.68;;;;;;;8.88;82.72;100427.72;5039159;28;20040;-61
2021/11/09 12:17:36;;;;;;;28.63;12.85;;;;;;;8.83;83.00;100422.97;5036109;28;20067;-62
2021/11/09 12:20:07;;;;;;;;;;;;;;;8.78;82.49;100421.94;5032112;28;20447;-59
2021/11/09 12:22:42;;;;;;;25.73;11.60;;;;;;;8.74;84.39;100416.16;5041856;28;19916;-61
2021/11/09 12:25:31;;;;;;;30.58;12.48;;;;;;;8.61;83.97;100414.28;5036701;28;20037;-62
2021/11/09 12:27:57;;;;;;;29.05;11.93;;;;;;;8.63;82.40;100416.75;5031096;28;20211;-62
2021/11/09 12:30:38;;;;;;;26.00;11.20;;;;;;;9.08;81.39;100417.06;5040951;28;20385;-62
2021/11/09 12:33:16;;;;;;;25.55;10.40;;;;;;;8.92;81.14;100407.56;5036874;28;20450;-62
2021/11/09 12:35:43;;;;;;;19.73;10.68;;;;;;;9.15;80.66;100395.66;5037651;28;20466;-62
2021/11/09 12:38:18;;;;;;;25.30;11.20;;;;;;;8.79;81.38;100397.69;5041258;28;20167;-63
2021/11/09 12:40:43;;;;;;;21.70;10.02;;;;;;;8.98;79.99;100396.06;5036525;28;20132;-61
2021/11/09 12:43:19;;;;;;;23.17;11.02;;;;;;;9.06;79.03;100392.34;5041356;28;20049;-61
2021/11/09 12:45:49;;;;;;;20.23;11.23;;;;;;;8.85;80.50;100386.16;5038346;28;20167;-61
2021/11/09 12:48:17;;;;;;;25.02;10.38;;;;;;;8.98;79.14;100379.19;5037458;28;20029;-61
2021/11/09 12:50:46;;;;;;;28.45;10.95;;;;;;;8.97;78.85;100383.72;5035678;28;20029;-61
2021/11/09 12:53:12;;;;;;;20.23;10.35;;;;;;;9.02;78.20;100378.59;5039900;28;20025;-61
2021/11/09 12:55:39;;;;;;;24.00;10.18;;;;;;;9.17;78.27;100385.59;5037782;28;20037;-62
2021/11/09 12:58:19;;;;;;;24.10;10.73;;;;;;;9.29;78.19;100381.28;5034075;28;20099;-61
2021/11/09 13:00:50;;;;;;;23.88;10.32;;;;;;;9.27;77.25;100377.97;5040368;28;20519;-61
2021/11/09 13:03:27;;;;;;;22.23;9.80;;;;;;;9.05;76.86;100369.31;5041070;28;20494;-61
2021/11/09 13:05:55;;;;;;;25.73;9.80;;;;;;;9.28;76.55;100377.78;5040720;28;20145;-61
2021/11/09 13:08:29;;;;;;;11.48;3.70;;;;;;;9.48;67.07;100359.06;5044977;28;20028;-61
2021/11/09 13:10:56;;;;;;;15.15;4.72;;;;;;;9.39;65.55;100367.50;5044962;28;20067;-61
2021/11/09 13:13:22;;;;;;;17.25;4.80;;;;;;;9.53;63.19;100350.38;5043189;28;20075;-62
2021/11/09 13:15:47;;;;;;;13.15;3.63;;;;;;;9.38;63.28;100352.44;5039077;28;20484;-62
2021/11/09 13:18:13;;;;;;;9.13;3.03;;;;;;;9.27;62.59;100346.69;5044559;28;20039;-60
2021/11/09 13:20:48;;;;;;;9.63;3.22;;;;;;;9.34;63.07;100340.53;5042341;28;20045;-61
2021/11/09 13:23:20;;;;;;;12.75;3.97;;;;;;;9.48;63.68;100339.47;5053513;28;20028;-61
2021/11/09 13:25:51;;;;;;;9.57;3.08;;;;;;;9.49;62.71;100335.78;5044956;28;20037;-61
2021/11/09 13:28:28;;;;;;;7.53;3.10;;;;;;;9.47;63.13;100340.50;5039671;28;20032;-60
2021/11/09 13:31:01;;;;;;;7.63;3.03;;;;;;;9.42;64.02;100332.28;5043096;28;20033;-60